Time;durP1;ratioP1;P1;durP2;ratioP2;P2;SDS_P1;SDS_P2;PMS_P1;PMS_P2;Temp;Humidity;BMP_temperature;BMP_pressure;BME280_temperature;BME280_humidity;BME280_pressure;Samples;Min_cycle;Max_cycle;Signal;HPM_P1;HPM_P2
2023/01/11 00:01:23;;;;;;;0.50;0.50;;;;;;;3.36;100.00;96683.94;5044584;28;20207;-74
2023/01/11 00:03:50;;;;;;;0.60;0.60;;;;;;;3.40;100.00;96692.44;5046533;28;20198;-74
2023/01/11 00:06:17;;;;;;;0.97;0.60;;;;;;;3.45;100.00;96702.59;5043331;28;20230;-75
2023/01/11 00:08:44;;;;;;;1.30;0.63;;;;;;;3.43;100.00;96692.06;5042771;28;20190;-75
2023/01/11 00:11:15;;;;;;;0.63;0.50;;;;;;;3.47;100.00;96685.38;5043450;28;20232;-74
2023/01/11 00:13:43;;;;;;;0.50;0.50;;;;;;;3.59;100.00;96688.47;5043374;28;20215;-74
2023/01/11 00:16:13;;;;;;;0.50;0.50;;;;;;;3.70;100.00;96680.03;5048086;28;20281;-75
2023/01/11 00:18:40;;;;;;;0.50;0.50;;;;;;;3.79;100.00;96698.47;5040068;28;20210;-75
2023/01/11 00:21:08;;;;;;;0.50;0.50;;;;;;;3.71;100.00;96685.19;5037911;28;20203;-75
2023/01/11 00:23:36;;;;;;;0.63;0.60;;;;;;;3.78;100.00;96690.66;5042157;28;20206;-75
2023/01/11 00:26:07;;;;;;;1.10;0.50;;;;;;;3.74;100.00;96684.81;5033659;28;20212;-75
2023/01/11 00:28:34;;;;;;;0.50;0.50;;;;;;;3.74;100.00;96695.50;5049348;28;20289;-75
2023/01/11 00:31:01;;;;;;;0.60;0.60;;;;;;;3.69;100.00;96686.38;5034822;28;20270;-75
2023/01/11 00:33:30;;;;;;;0.40;0.40;;;;;;;3.60;100.00;96698.97;5040447;28;20262;-75
2023/01/11 00:35:57;;;;;;;0.67;0.67;;;;;;;3.53;100.00;96690.00;5030254;28;20206;-75
2023/01/11 00:49:23;;;;;;;0.67;0.60;;;;;;;3.48;100.00;96676.38;5041301;28;20224;-75
2023/01/11 00:51:49;;;;;;;0.50;0.50;;;;;;;3.41;100.00;96683.41;5044780;28;20214;-75
2023/01/11 00:54:16;;;;;;;0.50;0.50;;;;;;;3.38;100.00;96686.44;5042373;28;20352;-75
2023/01/11 00:56:43;;;;;;;0.50;0.50;;;;;;;3.39;100.00;96688.13;5038725;28;20272;-74
2023/01/11 00:59:11;;;;;;;0.53;0.53;;;;;;;3.36;100.00;96689.28;5046084;28;20211;-75
2023/01/11 01:01:38;;;;;;;0.60;0.60;;;;;;;3.37;100.00;96704.31;5045053;28;20190;-75
2023/01/11 01:04:08;;;;;;;0.70;0.60;;;;;;;3.35;100.00;96708.97;5042022;28;20213;-75
2023/01/11 01:06:36;;;;;;;0.50;0.50;;;;;;;3.31;100.00;96696.19;5044644;28;20206;-75
2023/01/11 01:09:04;;;;;;;0.50;0.50;;;;;;;3.36;100.00;96697.31;5043652;28;20248;-74
2023/01/11 01:11:31;;;;;;;0.50;0.50;;;;;;;3.32;100.00;96687.97;5035058;28;20247;-74
2023/01/11 01:16:44;;;;;;;0.50;0.50;;;;;;;3.26;100.00;96693.19;5035798;28;20227;-75
2023/01/11 01:19:11;;;;;;;0.40;0.40;;;;;;;3.23;100.00;96686.34;5047107;28;20198;-74
2023/01/11 01:21:40;;;;;;;0.57;0.57;;;;;;;3.23;100.00;96694.38;5043932;28;20273;-75
2023/01/11 01:24:07;;;;;;;0.50;0.50;;;;;;;3.25;100.00;96691.53;5044400;28;20229;-75
2023/01/11 01:26:34;;;;;;;0.73;0.50;;;;;;;3.25;100.00;96695.03;5049123;28;20198;-75
2023/01/11 01:29:01;;;;;;;0.70;0.70;;;;;;;3.27;100.00;96689.50;5045149;28;20203;-75
2023/01/11 01:31:28;;;;;;;0.70;0.70;;;;;;;3.26;100.00;96699.34;5045214;28;20204;-75
2023/01/11 01:33:56;;;;;;;0.70;0.70;;;;;;;3.23;100.00;96699.69;5043451;28;20213;-75
2023/01/11 01:36:22;;;;;;;0.80;0.80;;;;;;;3.19;100.00;96706.41;5050118;28;20210;-75
2023/01/11 01:38:51;;;;;;;1.23;0.80;;;;;;;3.18;100.00;96696.75;5048472;28;20218;-75
2023/01/11 01:41:18;;;;;;;0.70;0.70;;;;;;;3.16;100.00;96708.59;5043814;28;20238;-74
2023/01/11 01:43:49;;;;;;;0.83;0.70;;;;;;;3.14;100.00;96711.47;5049996;28;20199;-75
2023/01/11 01:46:17;;;;;;;0.80;0.80;;;;;;;3.04;100.00;96706.34;5037948;28;20224;-75
2023/01/11 01:48:48;;;;;;;1.03;0.80;;;;;;;3.07;100.00;96714.97;5039086;28;20207;-75
2023/01/11 01:51:21;;;;;;;0.67;0.67;;;;;;;3.06;100.00;96703.50;5040153;28;20289;-75
2023/01/11 01:53:53;;;;;;;1.30;1.10;;;;;;;3.03;100.00;96704.66;5040182;28;20244;-75
2023/01/11 01:56:26;;;;;;;0.70;0.70;;;;;;;2.97;100.00;96694.69;5049546;28;20237;-75
2023/01/11 01:58:57;;;;;;;1.03;0.60;;;;;;;2.93;100.00;96682.72;5049615;28;20206;-75
2023/01/11 02:04:13;;;;;;;0.50;0.50;;;;;;;3.13;100.00;96693.78;5043551;28;20211;-75
2023/01/11 02:06:42;;;;;;;0.60;0.60;;;;;;;3.25;100.00;96696.88;5047794;28;20321;-75
2023/01/11 02:09:22;;;;;;;0.57;0.57;;;;;;;3.30;100.00;96692.69;5043534;28;20624;-75
2023/01/11 02:11:50;;;;;;;0.40;0.40;;;;;;;3.38;100.00;96671.28;5050425;28;20230;-75
2023/01/11 02:14:19;;;;;;;0.50;0.50;;;;;;;3.55;100.00;96677.31;5041055;28;20195;-75
2023/01/11 02:16:46;;;;;;;0.40;0.40;;;;;;;3.56;100.00;96678.97;5051955;28;20218;-75
2023/01/11 02:19:29;;;;;;;0.57;0.40;;;;;;;3.55;100.00;96663.97;5044954;28;20198;-75
2023/01/11 02:22:14;;;;;;;0.50;0.50;;;;;;;3.46;100.00;96651.69;5048326;28;20214;-75
2023/01/11 02:25:13;;;;;;;1.77;1.07;;;;;;;3.38;100.00;96649.09;5039239;28;20230;-75
2023/01/11 02:27:57;;;;;;;0.97;0.73;;;;;;;3.26;100.00;96645.16;5044223;28;20242;-75
2023/01/11 02:30:30;;;;;;;0.60;0.60;;;;;;;3.18;100.00;96637.22;5042074;28;20194;-74
2023/01/11 02:33:07;;;;;;;0.53;0.53;;;;;;;3.14;100.00;96620.75;5041914;28;20330;-74
2023/01/11 02:35:42;;;;;;;0.53;0.53;;;;;;;3.17;100.00;96614.19;5045321;28;20213;-75
2023/01/11 02:38:18;;;;;;;0.50;0.50;;;;;;;3.19;100.00;96601.50;5036738;28;20313;-75
2023/01/11 02:40:54;;;;;;;0.50;0.50;;;;;;;3.23;100.00;96602.84;5045690;28;20225;-75
2023/01/11 02:46:22;;;;;;;0.50;0.50;;;;;;;3.33;100.00;96590.06;5042018;28;20202;-75
2023/01/11 02:48:58;;;;;;;0.60;0.60;;;;;;;3.38;100.00;96593.88;5047915;28;20202;-74
2023/01/11 02:51:33;;;;;;;0.97;0.67;;;;;;;3.42;100.00;96576.47;5040958;28;20213;-75
2023/01/11 02:54:05;;;;;;;0.70;0.70;;;;;;;3.59;100.00;96582.47;5040506;28;20336;-75
2023/01/11 02:56:37;;;;;;;0.53;0.50;;;;;;;3.72;100.00;96588.06;5044530;28;20195;-75
2023/01/11 02:59:08;;;;;;;0.50;0.50;;;;;;;3.74;100.00;96580.66;5047160;28;20203;-75
2023/01/11 03:01:44;;;;;;;0.50;0.50;;;;;;;3.77;100.00;96580.31;5049587;28;20216;-75
2023/01/11 03:04:26;;;;;;;0.40;0.40;;;;;;;3.74;100.00;96579.84;5043354;28;20212;-75
2023/01/11 03:07:00;;;;;;;0.50;0.50;;;;;;;3.71;100.00;96574.88;5046022;28;20198;-75
2023/01/11 03:09:38;;;;;;;0.40;0.40;;;;;;;3.72;100.00;96588.06;5041776;28;20289;-75
2023/01/11 03:15:30;;;;;;;0.57;0.57;;;;;;;3.51;100.00;96579.06;5042495;28;20252;-75
2023/01/11 03:18:10;;;;;;;0.50;0.50;;;;;;;3.51;100.00;96582.56;5047903;28;20310;-75
2023/01/11 03:20:41;;;;;;;0.60;0.60;;;;;;;3.42;100.00;96594.31;5058289;28;20284;-76
2023/01/11 03:23:17;;;;;;;0.97;0.60;;;;;;;3.35;100.00;96602.22;5032629;28;20271;-75
2023/01/11 03:25:55;;;;;;;0.60;0.60;;;;;;;3.31;100.00;96594.75;5046991;28;20236;-75
2023/01/11 03:28:31;;;;;;;0.70;0.70;;;;;;;3.27;100.00;96588.94;5043824;28;20202;-75
2023/01/11 03:31:06;;;;;;;0.50;0.50;;;;;;;3.30;100.00;96595.75;5044532;28;20202;-75
2023/01/11 03:33:39;;;;;;;0.80;0.80;;;;;;;3.26;100.00;96594.44;5045960;28;20202;-75
2023/01/11 03:36:15;;;;;;;1.23;0.90;;;;;;;3.19;100.00;96599.69;5040781;28;20199;-75
2023/01/11 03:38:48;;;;;;;0.90;0.67;;;;;;;3.12;100.00;96593.41;5044476;28;20276;-75
2023/01/11 03:41:20;;;;;;;0.70;0.70;;;;;;;3.04;100.00;96582.78;5038020;28;20198;-75
2023/01/11 03:43:50;;;;;;;0.60;0.60;;;;;;;3.09;100.00;96592.91;5038399;28;20203;-75
2023/01/11 03:46:22;;;;;;;0.53;0.53;;;;;;;3.05;100.00;96584.44;5035168;28;20237;-75
2023/01/11 03:48:53;;;;;;;0.50;0.50;;;;;;;2.97;100.00;96572.00;5039890;28;20215;-75
2023/01/11 03:51:26;;;;;;;0.63;0.60;;;;;;;2.92;100.00;96574.34;5040807;28;20214;-75
2023/01/11 03:53:57;;;;;;;0.57;0.57;;;;;;;2.81;100.00;96558.75;5045719;28;20211;-74
2023/01/11 03:56:32;;;;;;;0.70;0.60;;;;;;;2.81;100.00;96577.41;5036928;28;20211;-75
2023/01/11 03:58:59;;;;;;;0.80;0.70;;;;;;;2.72;100.00;96586.50;5045489;28;20281;-75
2023/01/11 04:01:29;;;;;;;0.80;0.77;;;;;;;2.80;100.00;96586.44;5042211;28;20245;-75
2023/01/11 04:03:56;;;;;;;0.70;0.70;;;;;;;2.76;100.00;96584.28;5034848;28;20211;-75
2023/01/11 04:06:23;;;;;;;1.13;1.00;;;;;;;2.75;100.00;96588.78;5037732;28;20202;-75
2023/01/11 04:08:51;;;;;;;0.73;0.70;;;;;;;2.76;100.00;96579.78;5044429;28;20293;-75
2023/01/11 04:11:18;;;;;;;0.70;0.70;;;;;;;2.79;100.00;96578.63;5045133;28;20327;-75
2023/01/11 04:13:45;;;;;;;0.60;0.60;;;;;;;2.80;100.00;96580.28;5046513;28;20195;-75
2023/01/11 04:16:11;;;;;;;0.80;0.80;;;;;;;2.77;100.00;96581.47;5041111;28;20202;-75
2023/01/11 04:18:40;;;;;;;0.77;0.70;;;;;;;2.71;100.00;96587.50;5046799;28;20276;-75
2023/01/11 04:21:07;;;;;;;1.70;0.60;;;;;;;2.73;100.00;96582.81;5043478;28;20198;-75
2023/01/11 04:23:34;;;;;;;0.70;0.70;;;;;;;2.70;100.00;96579.69;5043843;28;20198;-75
2023/01/11 04:26:01;;;;;;;0.70;0.60;;;;;;;2.64;100.00;96570.53;5041930;28;20242;-75
2023/01/11 04:28:28;;;;;;;0.80;0.70;;;;;;;2.61;100.00;96570.91;5037152;28;20199;-75
2023/01/11 04:30:55;;;;;;;1.10;0.60;;;;;;;2.50;100.00;96558.78;5034274;28;20218;-75
2023/01/11 04:33:22;;;;;;;0.60;0.60;;;;;;;2.56;100.00;96573.25;5044497;28;20209;-74
2023/01/11 04:35:51;;;;;;;0.60;0.60;;;;;;;2.47;100.00;96576.94;5045781;28;20205;-74
2023/01/11 04:38:18;;;;;;;0.63;0.63;;;;;;;2.36;100.00;96566.69;5045730;28;20221;-75
2023/01/11 04:40:47;;;;;;;2.33;0.90;;;;;;;2.34;100.00;96569.53;5045845;28;20209;-74
2023/01/11 04:43:13;;;;;;;1.27;0.90;;;;;;;2.36;100.00;96572.03;5042371;28;20256;-75
2023/01/11 04:45:40;;;;;;;0.70;0.70;;;;;;;2.34;100.00;96569.53;5042898;28;20205;-75
2023/01/11 04:48:07;;;;;;;0.60;0.60;;;;;;;2.40;100.00;96558.16;5046666;28;20285;-74
2023/01/11 04:50:34;;;;;;;0.93;0.80;;;;;;;2.41;100.00;96553.66;5045390;28;20218;-75
2023/01/11 04:53:02;;;;;;;0.70;0.70;;;;;;;2.42;100.00;96555.31;5042611;28;20206;-75
2023/01/11 04:55:29;;;;;;;0.60;0.60;;;;;;;2.46;100.00;96562.00;5047035;28;20217;-74
2023/01/11 04:57:56;;;;;;;1.63;0.90;;;;;;;2.55;100.00;96558.28;5040011;28;20222;-75
2023/01/11 05:00:23;;;;;;;0.63;0.63;;;;;;;2.58;100.00;96565.91;5044500;28;20292;-74
2023/01/11 05:02:50;;;;;;;1.23;0.90;;;;;;;2.60;100.00;96563.91;5036733;28;20209;-75
2023/01/11 05:05:17;;;;;;;0.93;0.83;;;;;;;2.66;100.00;96563.19;5042751;28;20211;-74
2023/01/11 05:07:44;;;;;;;1.10;0.80;;;;;;;2.73;100.00;96566.81;5030612;28;20208;-74
2023/01/11 05:10:13;;;;;;;0.73;0.73;;;;;;;2.66;100.00;96552.53;5041768;28;20225;-75
2023/01/11 05:12:40;;;;;;;0.93;0.60;;;;;;;2.64;100.00;96566.03;5044464;28;20507;-75
2023/01/11 05:15:08;;;;;;;0.70;0.70;;;;;;;2.55;100.00;96560.94;5047956;28;20190;-75
2023/01/11 05:17:35;;;;;;;0.87;0.80;;;;;;;2.45;100.00;96555.81;5042333;28;20308;-74
2023/01/11 05:20:05;;;;;;;2.60;1.23;;;;;;;2.47;100.00;96555.63;5047975;28;20198;-75
2023/01/11 05:22:32;;;;;;;0.60;0.60;;;;;;;2.53;100.00;96578.94;5042340;28;20206;-75
2023/01/11 05:24:59;;;;;;;0.80;0.80;;;;;;;2.48;100.00;96563.44;5030359;28;20229;-75
2023/01/11 05:27:27;;;;;;;1.27;1.00;;;;;;;2.54;100.00;96560.09;5044217;28;20216;-75
2023/01/11 05:29:54;;;;;;;1.83;1.00;;;;;;;2.74;100.00;96565.81;5042711;28;20257;-75
2023/01/11 05:32:22;;;;;;;1.33;0.70;;;;;;;2.95;100.00;96567.84;5031530;28;20222;-74
2023/01/11 05:34:48;;;;;;;0.60;0.60;;;;;;;3.12;100.00;96555.22;5048011;28;20213;-74
2023/01/11 05:37:15;;;;;;;0.70;0.70;;;;;;;3.22;100.00;96550.47;5035819;28;20203;-75
2023/01/11 05:39:42;;;;;;;0.77;0.77;;;;;;;3.23;100.00;96555.59;5028559;28;20218;-75
2023/01/11 05:42:09;;;;;;;0.97;0.80;;;;;;;3.30;100.00;96545.06;5044071;28;20237;-75
2023/01/11 05:47:22;;;;;;;1.13;1.00;;;;;;;3.37;100.00;96546.81;5047665;28;20230;-75
2023/01/11 05:49:49;;;;;;;0.73;0.73;;;;;;;3.38;100.00;96555.66;5045335;28;20206;-75
2023/01/11 05:52:16;;;;;;;1.83;1.50;;;;;;;3.33;100.00;96545.50;5044931;28;20213;-74
2023/01/11 05:54:43;;;;;;;1.07;0.97;;;;;;;3.39;100.00;96550.16;5038213;28;20216;-75
2023/01/11 05:57:10;;;;;;;0.70;0.70;;;;;;;3.43;100.00;96545.25;5044285;28;20214;-74
2023/01/11 05:59:39;;;;;;;1.43;1.30;;;;;;;3.46;100.00;96546.75;5047465;28;20224;-74
2023/01/11 06:02:06;;;;;;;0.90;0.90;;;;;;;3.46;100.00;96549.41;5042312;28;20294;-75
2023/01/11 06:04:33;;;;;;;1.53;1.03;;;;;;;3.49;100.00;96544.53;5046312;28;20207;-75
2023/01/11 06:07:00;;;;;;;1.20;1.10;;;;;;;3.47;100.00;96540.41;5042010;28;20191;-75
2023/01/11 06:09:27;;;;;;;1.93;1.13;;;;;;;3.52;100.00;96540.69;5036449;28;20221;-75
2023/01/11 06:11:54;;;;;;;1.00;0.80;;;;;;;3.58;100.00;96542.59;5039280;28;20296;-75
2023/01/11 06:14:21;;;;;;;1.13;1.03;;;;;;;3.64;100.00;96537.38;5046938;28;20206;-75
2023/01/11 06:16:49;;;;;;;1.03;0.97;;;;;;;3.77;100.00;96540.25;5038813;28;20218;-74
2023/01/11 06:19:16;;;;;;;1.00;0.90;;;;;;;3.80;100.00;96544.41;5044738;28;20275;-75
2023/01/11 06:21:43;;;;;;;0.80;0.80;;;;;;;3.74;100.00;96521.91;5043459;28;20230;-75
2023/01/11 06:24:10;;;;;;;1.20;1.00;;;;;;;3.79;100.00;96535.56;5037660;28;20230;-75
2023/01/11 06:26:37;;;;;;;1.20;1.00;;;;;;;3.74;100.00;96535.25;5037239;28;20209;-75
2023/01/11 06:29:06;;;;;;;2.07;1.20;;;;;;;3.65;100.00;96525.69;5047384;28;20194;-75
2023/01/11 06:31:34;;;;;;;1.27;1.10;;;;;;;3.63;100.00;96533.06;5035499;28;20214;-75
2023/01/11 06:34:03;;;;;;;1.50;1.27;;;;;;;3.59;100.00;96526.41;5036620;28;20203;-75
2023/01/11 06:36:30;;;;;;;1.20;1.10;;;;;;;3.58;100.00;96526.59;5044391;28;20222;-74
2023/01/11 06:38:57;;;;;;;0.80;0.80;;;;;;;3.60;100.00;96530.75;5041321;28;20214;-74
2023/01/11 06:41:24;;;;;;;1.00;0.90;;;;;;;3.58;100.00;96527.41;5030863;28;20233;-75
2023/01/11 06:43:51;;;;;;;0.90;0.90;;;;;;;3.75;100.00;96534.25;5041572;28;20198;-75
2023/01/11 06:46:18;;;;;;;0.90;0.90;;;;;;;3.68;100.00;96516.47;5041885;28;20226;-74
2023/01/11 06:48:45;;;;;;;0.80;0.80;;;;;;;3.71;100.00;96513.44;5042808;28;20202;-73
2023/01/11 06:51:15;;;;;;;2.57;0.90;;;;;;;3.70;100.00;96509.94;5045284;28;20280;-73
2023/01/11 06:53:45;;;;;;;1.10;1.00;;;;;;;3.76;100.00;96511.88;5034086;28;20312;-75
2023/01/11 06:56:14;;;;;;;1.70;1.37;;;;;;;3.83;100.00;96514.63;5051172;28;20300;-75
2023/01/11 06:58:41;;;;;;;0.97;0.93;;;;;;;3.95;100.00;96501.66;5036127;28;20230;-75
2023/01/11 07:01:08;;;;;;;0.70;0.70;;;;;;;4.24;100.00;96517.66;5037834;28;20245;-75
2023/01/11 07:03:35;;;;;;;1.30;0.80;;;;;;;4.33;100.00;96500.50;5044855;28;20202;-74
2023/01/11 07:06:03;;;;;;;0.83;0.83;;;;;;;4.52;100.00;96505.25;5040435;28;20206;-74
2023/01/11 07:08:31;;;;;;;0.80;0.80;;;;;;;4.69;100.00;96494.31;5046647;28;20243;-75
2023/01/11 07:10:58;;;;;;;1.37;1.10;;;;;;;4.70;100.00;96495.97;5040343;28;20225;-74
2023/01/11 07:13:25;;;;;;;1.73;1.07;;;;;;;4.68;100.00;96480.09;5046032;28;20206;-75
2023/01/11 07:15:56;;;;;;;0.80;0.80;;;;;;;4.70;100.00;96471.88;5038931;28;20198;-75
2023/01/11 07:18:24;;;;;;;1.17;0.80;;;;;;;4.81;100.00;96471.38;5046463;28;20222;-74
2023/01/11 07:20:51;;;;;;;1.90;0.87;;;;;;;4.93;100.00;96449.25;5038069;28;20211;-76
2023/01/11 07:23:18;;;;;;;0.90;0.80;;;;;;;5.38;100.00;96459.72;5036740;28;20229;-77
2023/01/11 07:25:48;;;;;;;1.57;1.30;;;;;;;5.35;100.00;96462.78;5036413;28;20317;-75
2023/01/11 07:28:15;;;;;;;1.87;1.27;;;;;;;5.28;100.00;96468.91;5042251;28;20233;-74
2023/01/11 07:30:42;;;;;;;0.97;0.93;;;;;;;5.16;100.00;96438.34;5040916;28;20202;-74
2023/01/11 07:33:10;;;;;;;2.00;0.87;;;;;;;5.20;100.00;96444.13;5033468;28;20210;-75
2023/01/11 07:35:37;;;;;;;1.53;1.10;;;;;;;5.36;100.00;96451.06;5037809;28;20190;-74
2023/01/11 07:38:08;;;;;;;0.87;0.87;;;;;;;5.78;100.00;96442.06;5057887;28;20277;-74
2023/01/11 07:40:36;;;;;;;0.90;0.90;;;;;;;5.90;100.00;96453.88;5044065;28;20301;-75
2023/01/11 07:43:17;;;;;;;0.90;0.80;;;;;;;5.88;100.00;96451.41;5043431;28;20209;-74
2023/01/11 07:45:47;;;;;;;0.87;0.80;;;;;;;5.84;100.00;96439.41;5036538;28;20292;-75
2023/01/11 07:48:19;;;;;;;0.87;0.87;;;;;;;5.83;100.00;96435.06;5039707;28;20198;-75
2023/01/11 07:50:47;;;;;;;1.57;1.00;;;;;;;5.80;100.00;96435.44;5040970;28;20206;-75
2023/01/11 07:53:14;;;;;;;1.13;0.93;;;;;;;5.81;100.00;96425.56;5039497;28;20199;-75
2023/01/11 07:55:42;;;;;;;1.10;1.00;;;;;;;5.83;100.00;96410.94;5040731;28;20213;-74
2023/01/11 07:58:12;;;;;;;1.73;1.17;;;;;;;5.88;100.00;96413.88;5042649;28;20194;-75
2023/01/11 08:00:40;;;;;;;2.60;1.70;;;;;;;5.89;100.00;96414.72;5040978;28;20229;-75
2023/01/11 08:03:07;;;;;;;2.80;1.40;;;;;;;5.94;100.00;96421.16;5043695;28;20221;-75
2023/01/11 08:05:34;;;;;;;1.13;1.03;;;;;;;6.00;100.00;96427.56;5043764;28;20233;-75
2023/01/11 08:08:01;;;;;;;2.13;1.20;;;;;;;6.00;100.00;96430.22;5045110;28;20265;-74
2023/01/11 08:10:29;;;;;;;1.13;1.03;;;;;;;6.04;100.00;96432.31;5037862;28;20258;-75
2023/01/11 08:15:42;;;;;;;0.80;0.80;;;;;;;6.12;100.00;96438.53;5037561;28;20252;-74
2023/01/11 08:18:10;;;;;;;0.70;0.70;;;;;;;6.11;100.00;96443.06;5027980;28;20207;-74
2023/01/11 08:20:37;;;;;;;0.73;0.70;;;;;;;6.07;100.00;96441.81;5042603;28;20221;-75
2023/01/11 08:23:05;;;;;;;0.87;0.80;;;;;;;6.05;100.00;96443.84;5039711;28;20234;-75
2023/01/11 08:25:32;;;;;;;1.00;0.90;;;;;;;6.04;100.00;96453.75;5041681;28;20237;-75
2023/01/11 08:28:00;;;;;;;1.90;1.33;;;;;;;5.98;100.00;96449.19;5046685;28;20213;-75
2023/01/11 08:30:28;;;;;;;2.03;1.43;;;;;;;5.91;100.00;96431.44;5042187;28;20234;-75
2023/01/11 08:32:57;;;;;;;1.67;1.10;;;;;;;5.88;100.00;96443.34;5037278;28;20198;-75
2023/01/11 08:35:24;;;;;;;1.73;1.50;;;;;;;5.91;100.00;96453.69;5036744;28;20206;-75
2023/01/11 08:37:51;;;;;;;1.77;1.57;;;;;;;5.81;100.00;96439.78;5037569;28;20293;-75
2023/01/11 08:40:18;;;;;;;2.47;1.57;;;;;;;5.87;100.00;96451.59;5032999;28;20222;-75
2023/01/11 08:42:45;;;;;;;2.10;1.70;;;;;;;5.89;100.00;96458.41;5028108;28;20195;-75
2023/01/11 08:45:12;;;;;;;2.53;1.60;;;;;;;5.84;100.00;96447.44;5032206;28;20277;-75
2023/01/11 08:47:39;;;;;;;4.53;1.70;;;;;;;5.98;100.00;96459.91;5033700;28;20199;-75
2023/01/11 08:50:10;;;;;;;2.13;1.87;;;;;;;5.91;100.00;96448.34;5045788;28;20259;-75
2023/01/11 08:52:37;;;;;;;3.23;1.77;;;;;;;5.80;100.00;96450.69;5039572;28;20256;-75
2023/01/11 08:55:06;;;;;;;2.47;1.73;;;;;;;5.82;100.00;96464.75;5039478;28;20244;-75
2023/01/11 08:57:33;;;;;;;3.93;2.10;;;;;;;5.74;100.00;96455.00;5034621;28;20301;-75
2023/01/11 09:00:00;;;;;;;4.23;1.90;;;;;;;5.77;100.00;96472.56;5031101;28;20230;-75
2023/01/11 09:02:28;;;;;;;2.57;1.80;;;;;;;5.76;100.00;96471.72;5042173;28;20260;-75
2023/01/11 09:04:55;;;;;;;2.73;1.93;;;;;;;5.73;100.00;96469.44;5032779;28;20241;-75
2023/01/11 09:07:23;;;;;;;3.30;2.10;;;;;;;5.85;100.00;96485.78;5041208;28;20292;-75
2023/01/11 09:09:50;;;;;;;3.33;2.10;;;;;;;5.87;100.00;96484.53;5033603;28;20198;-75
2023/01/11 09:12:18;;;;;;;3.70;1.93;;;;;;;5.90;100.00;96478.84;5034257;28;20202;-75
2023/01/11 09:14:45;;;;;;;2.93;2.00;;;;;;;5.95;100.00;96480.94;5036439;28;20194;-75
2023/01/11 09:17:12;;;;;;;2.60;2.30;;;;;;;5.93;100.00;96475.78;5042404;28;20204;-75
2023/01/11 09:19:39;;;;;;;4.77;2.50;;;;;;;5.94;100.00;96474.75;5039442;28;20225;-75
2023/01/11 09:22:08;;;;;;;5.00;3.60;;;;;;;5.94;100.00;96484.63;5031356;28;20246;-75
2023/01/11 09:24:36;;;;;;;7.53;4.90;;;;;;;5.93;100.00;96473.09;5037304;28;20242;-75
2023/01/11 09:27:04;;;;;;;6.33;3.10;;;;;;;5.97;100.00;96473.50;5044393;28;20209;-74
2023/01/11 09:29:32;;;;;;;5.17;3.33;;;;;;;6.01;100.00;96475.59;5034988;28;20194;-75
2023/01/11 09:31:58;;;;;;;3.40;2.33;;;;;;;6.03;100.00;96475.41;5041819;28;20209;-75
2023/01/11 09:34:27;;;;;;;2.63;1.90;;;;;;;6.03;100.00;96478.91;5047216;28;20213;-75
2023/01/11 09:36:55;;;;;;;4.00;2.20;;;;;;;6.03;100.00;96468.19;5040314;28;20211;-75
2023/01/11 09:39:25;;;;;;;2.50;2.10;;;;;;;6.12;100.00;96470.72;5028063;28;20227;-75
2023/01/11 09:42:25;;;;;;;13.33;3.60;;;;;;;6.53;100.00;96474.16;5042222;28;20270;-75
2023/01/11 09:44:57;;;;;;;5.03;2.53;;;;;;;6.56;100.00;96492.53;5036358;28;20256;-75
2023/01/11 09:47:37;;;;;;;9.47;3.20;;;;;;;6.51;100.00;96492.31;5047382;28;20202;-75
2023/01/11 09:50:12;;;;;;;5.13;2.57;;;;;;;6.47;100.00;96488.34;5043066;28;20260;-74
2023/01/11 09:52:43;;;;;;;3.97;2.63;;;;;;;6.43;100.00;96495.16;5038987;28;20360;-75
2023/01/11 09:55:18;;;;;;;5.43;2.30;;;;;;;6.45;100.00;96498.50;5045538;28;20202;-75
2023/01/11 09:58:01;;;;;;;3.13;2.03;;;;;;;6.46;100.00;96500.16;5045910;28;20255;-75
2023/01/11 10:00:48;;;;;;;4.53;2.50;;;;;;;6.45;100.00;96499.31;5048486;28;20236;-75
2023/01/11 10:03:58;;;;;;;3.80;2.97;;;;;;;6.48;100.00;96498.06;5045461;28;20214;-75
2023/01/11 10:06:33;;;;;;;5.83;2.33;;;;;;;6.51;100.00;96489.63;5041050;28;20209;-75
2023/01/11 10:09:23;;;;;;;4.13;2.53;;;;;;;6.47;100.00;96475.78;5039292;28;20197;-75
2023/01/11 10:12:05;;;;;;;3.33;2.40;;;;;;;6.51;100.00;96473.53;5043714;28;20223;-75
2023/01/11 10:14:49;;;;;;;4.57;3.13;;;;;;;6.54;100.00;96475.81;5050062;28;20202;-75
2023/01/11 10:17:25;;;;;;;5.13;3.60;;;;;;;6.55;100.00;96477.44;5038872;28;20220;-75
2023/01/11 10:19:58;;;;;;;5.70;4.30;;;;;;;6.58;100.00;96468.19;5044704;28;20245;-75
2023/01/11 10:22:32;;;;;;;3.37;2.47;;;;;;;6.54;100.00;96467.78;5041477;28;20261;-75
2023/01/11 10:25:09;;;;;;;6.60;5.53;;;;;;;6.52;100.00;96460.94;5040823;28;20237;-75
2023/01/11 10:27:39;;;;;;;6.63;4.87;;;;;;;6.42;100.00;96455.97;5040389;28;20201;-75
2023/01/11 10:30:32;;;;;;;8.20;5.00;;;;;;;6.48;100.00;96468.56;5040494;28;20257;-75
2023/01/11 10:33:17;;;;;;;6.47;4.63;;;;;;;6.49;100.00;96470.22;5062187;28;20198;-75
2023/01/11 10:36:01;;;;;;;5.77;4.20;;;;;;;6.35;100.00;96449.75;5040047;28;20214;-75
2023/01/11 10:38:53;;;;;;;9.70;3.87;;;;;;;6.33;100.00;96457.16;5043533;28;20210;-75
2023/01/11 10:41:32;;;;;;;5.43;4.03;;;;;;;6.36;100.00;96454.09;5037471;28;20227;-75
2023/01/11 10:44:17;;;;;;;3.97;3.40;;;;;;;6.37;100.00;96464.63;5045668;28;20198;-75
2023/01/11 10:46:50;;;;;;;7.07;4.10;;;;;;;6.41;100.00;96467.72;5032568;28;20209;-75
2023/01/11 10:49:43;;;;;;;5.07;4.17;;;;;;;6.42;100.00;96477.41;5039902;28;20217;-75
2023/01/11 10:52:35;;;;;;;5.53;4.30;;;;;;;6.46;100.00;96462.59;5042829;28;20206;-75
2023/01/11 10:55:12;;;;;;;5.20;3.70;;;;;;;6.47;100.00;96458.84;5036043;28;20214;-75
2023/01/11 10:57:54;;;;;;;5.47;3.87;;;;;;;6.50;100.00;96463.00;5037396;28;20238;-75
2023/01/11 11:00:32;;;;;;;6.90;3.77;;;;;;;6.47;100.00;96451.63;5047807;28;20227;-75
2023/01/11 11:03:41;;;;;;;7.27;4.20;;;;;;;6.47;100.00;96432.03;5034913;28;20431;-75
2023/01/11 11:06:17;;;;;;;10.13;4.57;;;;;;;6.51;100.00;96427.09;4972914;28;20200;-75
2023/01/11 11:08:54;;;;;;;9.70;4.80;;;;;;;6.53;100.00;96417.84;5033031;28;20205;-75
2023/01/11 11:11:38;;;;;;;9.77;5.13;;;;;;;6.56;100.00;96416.56;5040440;28;20288;-75
2023/01/11 11:14:13;;;;;;;8.83;4.80;;;;;;;6.57;100.00;96411.00;5048039;28;20213;-75
2023/01/11 11:16:51;;;;;;;7.17;3.93;;;;;;;6.56;100.00;96403.16;5036764;28;20213;-74
2023/01/11 11:19:25;;;;;;;7.73;4.07;;;;;;;6.57;100.00;96402.97;5041192;28;20261;-75
2023/01/11 11:21:52;;;;;;;6.77;3.60;;;;;;;6.58;100.00;96385.84;5046248;28;20199;-75
2023/01/11 11:24:26;;;;;;;7.27;4.13;;;;;;;6.61;100.00;96379.25;5045793;28;20242;-75
2023/01/11 11:27:01;;;;;;;4.43;3.10;;;;;;;6.64;100.00;96370.78;5048089;28;20209;-75
2023/01/11 11:29:29;;;;;;;3.57;2.80;;;;;;;6.69;100.00;96361.09;5038618;28;20212;-75
2023/01/11 11:31:58;;;;;;;4.67;3.20;;;;;;;6.81;100.00;96359.44;5042893;28;20206;-75
2023/01/11 11:34:29;;;;;;;4.77;2.90;;;;;;;6.76;100.00;96351.19;5032164;28;20268;-75
2023/01/11 11:36:59;;;;;;;4.47;3.07;;;;;;;6.81;100.00;96363.97;5029458;28;20230;-75
2023/01/11 11:39:29;;;;;;;3.67;2.50;;;;;;;6.86;100.00;96366.06;5036603;28;20207;-75
2023/01/11 11:42:04;;;;;;;4.00;2.67;;;;;;;6.86;100.00;96364.19;5042556;28;20230;-75
2023/01/11 11:44:31;;;;;;;5.27;2.60;;;;;;;6.88;100.00;96356.78;5048452;28;20206;-75
2023/01/11 11:46:59;;;;;;;4.40;2.37;;;;;;;6.96;100.00;96371.84;5041348;28;20202;-76
2023/01/11 11:49:30;;;;;;;2.20;2.00;;;;;;;7.00;100.00;96375.75;5044681;28;20202;-75
2023/01/11 11:51:58;;;;;;;3.70;3.00;;;;;;;7.01;100.00;96362.13;5051982;28;20202;-75
2023/01/11 11:54:29;;;;;;;4.97;3.10;;;;;;;7.00;100.00;96362.31;5037577;28;20205;-75
2023/01/11 11:56:58;;;;;;;4.50;3.07;;;;;;;6.94;100.00;96357.78;5047389;28;20213;-75
2023/01/11 11:59:31;;;;;;;11.40;3.70;;;;;;;6.80;100.00;96351.63;5040206;28;20228;-75
2023/01/11 12:02:03;;;;;;;5.10;3.17;;;;;;;6.75;100.00;96348.69;5037322;28;20206;-76
2023/01/11 12:04:45;;;;;;;4.83;2.87;;;;;;;6.76;100.00;96340.44;5040836;28;20287;-75
2023/01/11 12:07:15;;;;;;;4.77;3.20;;;;;;;6.83;100.00;96314.44;5035257;28;20248;-74
2023/01/11 12:09:46;;;;;;;7.87;3.70;;;;;;;6.82;100.00;96307.41;5047015;28;20261;-75
2023/01/11 12:12:19;;;;;;;7.10;3.70;;;;;;;6.90;100.00;96313.59;5043292;28;20218;-75
2023/01/11 12:15:18;;;;;;;21.97;10.10;;;;;;;6.93;100.00;96318.56;5040947;28;20203;-75
2023/01/11 12:17:45;;;;;;;7.53;4.23;;;;;;;6.96;100.00;96318.16;5047618;28;20209;-75
2023/01/11 12:20:33;;;;;;;5.30;3.27;;;;;;;7.00;100.00;96308.63;5041641;28;20229;-74